sensor_id;sensor_type;location;lat;lon;timestamp;pressure;altitude;pressure_sealevel;temperature;humidity
46382;BME280;66809;52.974;-2.514;2023-06-10T00:01:54;1008.9231773577018;;;14.317993575575434;31.876102037422985
46382;BME280;66809;52.974;-2.514;2023-06-10T00:03:54;1008.9222849648254;;;14.260429834055028;31.94091642985674
46382;BME280;66809;52.974;-2.514;2023-06-10T00:05:53;1008.9227252175235;;;14.226282964739452;32.0009222178182
46382;BME280;66809;52.974;-2.514;2023-06-10T00:07:54;1008.9230175148516;;;14.186670661131904;32.05948387185507
46382;BME280;66809;52.974;-2.514;2023-06-10T00:09:54;1008.9231045744538;;;14.155450126178803;32.116303233464784
46382;BME280;66809;52.974;-2.514;2023-06-10T00:11:53;1008.922002412063;;;14.112972003658076;32.17302385662643
46382;BME280;66809;52.974;-2.514;2023-06-10T00:13:54;1008.9196323334294;;;14.076037879127023;32.229307354221916
46382;BME280;66809;52.974;-2.514;2023-06-10T00:15:54;1008.9165670602613;;;14.032064810187169;32.286608163412055
46382;BME280;66809;52.974;-2.514;2023-06-10T00:17:54;1008.9141463045688;;;13.989963232090028;32.3486970727516
46382;BME280;66809;52.974;-2.514;2023-06-10T00:19:54;1008.9105964812877;;;13.94361851183817;32.40973728682038
46382;BME280;66809;52.974;-2.514;2023-06-10T00:21:54;1008.9060382450153;;;13.893898349404399;32.47854600392423
46382;BME280;66809;52.974;-2.514;2023-06-10T00:23:54;1008.897815715211;;;13.850446423432187;32.52632818162048
46382;BME280;66809;52.974;-2.514;2023-06-10T00:25:54;1008.8889021960429;;;13.815982848114185;32.57434263094955
46382;BME280;66809;52.974;-2.514;2023-06-10T00:27:55;1008.8804917261717;;;13.784485357163605;32.62883409120394
46382;BME280;66809;52.974;-2.514;2023-06-10T00:29:53;1008.8714518283599;;;13.749906486211172;32.68457790963993
46382;BME280;66809;52.974;-2.514;2023-06-10T00:31:54;1008.8628185920469;;;13.71436910798865;32.73707952191983
46382;BME280;66809;52.974;-2.514;2023-06-10T00:33:54;1008.8554912062622;;;13.687192763947628;32.78182353564831
46382;BME280;66809;52.974;-2.514;2023-06-10T00:35:54;1008.847843355408;;;13.666433582345048;32.81991544537693
46382;BME280;66809;52.974;-2.514;2023-06-10T00:37:54;1008.8423649734334;;;13.641094421541323;32.85720890474812
46382;BME280;66809;52.974;-2.514;2023-06-10T00:39:54;1008.8357472683347;;;13.604279188644494;32.89432434408172
46382;BME280;66809;52.974;-2.514;2023-06-10T00:41:53;1008.8301373653809;;;13.575943295699302;32.93661495010599
46382;BME280;66809;52.974;-2.514;2023-06-10T00:43:54;1008.8244377566299;;;13.544632972581473;32.97636686316124
46382;BME280;66809;52.974;-2.514;2023-06-10T00:45:54;1008.8195340521056;;;13.504101713720074;33.01900573811533
46382;BME280;66809;52.974;-2.514;2023-06-10T00:47:54;1008.8170149714284;;;13.462469806707666;33.06242523548941
46382;BME280;66809;52.974;-2.514;2023-06-10T00:49:54;1008.8142934481546;;;13.414666695902122;33.09668359996586
46382;BME280;66809;52.974;-2.514;2023-06-10T00:51:54;1008.8110167839503;;;13.376269810187292;33.12835164955989
46382;BME280;66809;52.974;-2.514;2023-06-10T00:53:54;1008.8088779481675;;;13.339519807103153;33.15999203569917
46382;BME280;66809;52.974;-2.514;2023-06-10T00:55:54;1008.8075562329375;;;13.307643164146697;33.18731558645154
46382;BME280;66809;52.974;-2.514;2023-06-10T00:57:54;1008.8056389184026;;;13.274617618602745;33.21074469633881
46382;BME280;66809;52.974;-2.514;2023-06-10T00:59:54;1008.8040062148496;;;13.236031959047512;33.23496929030714
46382;BME280;66809;52.974;-2.514;2023-06-10T01:01:54;1008.8020237848358;;;13.203533561588047;33.26279326311873
46382;BME280;66809;52.974;-2.514;2023-06-10T01:03:54;1008.7976845424951;;;13.171679932499403;33.29649833605072
46382;BME280;66809;52.974;-2.514;2023-06-10T01:05:59;1008.7922818997813;;;13.122793014922662;33.334495438233766
46382;BME280;66809;52.974;-2.514;2023-06-10T01:08:01;1008.7867646869734;;;13.08188386840269;33.3790327969042
46382;BME280;66809;52.974;-2.514;2023-06-10T01:09:58;1008.7815384453108;;;13.036851384476977;33.41615944253571
46382;BME280;66809;52.974;-2.514;2023-06-10T01:12:00;1008.776385711129;;;13.003561683368616;33.45173503406346
46382;BME280;66809;52.974;-2.514;2023-06-10T01:13:55;1008.771394279788;;;12.972073046889683;33.49005458496393
46382;BME280;66809;52.974;-2.514;2023-06-10T01:15:54;1008.7658260937155;;;12.938469243618986;33.53169408053889
46382;BME280;66809;52.974;-2.514;2023-06-10T01:17:55;1008.7579867669882;;;12.901999549636715;33.565292685944065
46382;BME280;66809;52.974;-2.514;2023-06-10T01:19:55;1008.7499284737326;;;12.866058519919056;33.60325547533289
46382;BME280;66809;52.974;-2.514;2023-06-10T01:21:54;1008.7431238627638;;;12.840469858538285;33.629493525245856
46382;BME280;66809;52.974;-2.514;2023-06-10T01:23:54;1008.7395724127672;;;12.815914679744585;33.65147737994758
46382;BME280;66809;52.974;-2.514;2023-06-10T01:25:59;1008.7370179862123;;;12.783457339234092;33.67442822344338
46382;BME280;66809;52.974;-2.514;2023-06-10T01:27:59;1008.7338750792138;;;12.756417296516059;33.687585827768864
46382;BME280;66809;52.974;-2.514;2023-06-10T01:29:59;1008.7304924780834;;;12.732180708227139;33.70336364845948
46382;BME280;66809;52.974;-2.514;2023-06-10T01:32:00;1008.7265443973114;;;12.71052654752848;33.72188593738527
46382;BME280;66809;52.974;-2.514;2023-06-10T01:33:54;1008.721441004292;;;12.689987705365263;33.746569668133
46382;BME280;66809;52.974;-2.514;2023-06-10T01:35:55;1008.7145632520858;;;12.66455326422997;33.77556245348034
46382;BME280;66809;52.974;-2.514;2023-06-10T01:37:54;1008.7055018262157;;;12.634211894521899;33.81536580609215
46382;BME280;66809;52.974;-2.514;2023-06-10T01:39:57;1008.696577375094;;;12.603203824754615;33.85546800743064
46382;BME280;66809;52.974;-2.514;2023-06-10T01:41:54;1008.6877767631242;;;12.573985445491422;33.883106401320305
46382;BME280;66809;52.974;-2.514;2023-06-10T01:43:54;1008.6797100200321;;;12.553338133825259;33.91456267781278
46382;BME280;66809;52.974;-2.514;2023-06-10T01:45:54;1008.6713356726316;;;12.5191156570293;33.941589334631885
46382;BME280;66809;52.974;-2.514;2023-06-10T01:47:54;1008.6624541372755;;;12.504259744820235;33.948838040041025
46382;BME280;66809;52.974;-2.514;2023-06-10T01:49:54;1008.6520893826643;;;12.490143258898144;33.96801423921482
46382;BME280;66809;52.974;-2.514;2023-06-10T01:51:54;1008.6407157555583;;;12.474891732015465;33.98802263317295
46382;BME280;66809;52.974;-2.514;2023-06-10T01:53:54;1008.6300423860233;;;12.455248007509526;34.006247746599
46382;BME280;66809;52.974;-2.514;2023-06-10T01:55:54;1008.6187594216008;;;12.438293758176764;34.02322069021968
46382;BME280;66809;52.974;-2.514;2023-06-10T01:57:54;1008.6077212450953;;;12.418827233396048;34.048212336864474
46382;BME280;66809;52.974;-2.514;2023-06-10T01:59:54;1008.5986671604858;;;12.404887226593736;34.07072707941295
46382;BME280;66809;52.974;-2.514;2023-06-10T02:01:54;1008.5891268185949;;;12.386899515771777;34.091850415403975
46382;BME280;66809;52.974;-2.514;2023-06-10T02:03:54;1008.5806449372155;;;12.372491165532521;34.109975023143434
46382;BME280;66809;52.974;-2.514;2023-06-10T02:05:54;1008.5714349169618;;;12.369261863882416;34.12374502925298
46382;BME280;66809;52.974;-2.514;2023-06-10T02:07:54;1008.562487009144;;;12.349609751460273;34.1323931311278
46382;BME280;66809;52.974;-2.514;2023-06-10T02:09:54;1008.5534421686905;;;12.332168189634423;34.140495456680334
46382;BME280;66809;52.974;-2.514;2023-06-10T02:11:54;1008.5452164469353;;;12.314205728454333;34.15254255095036
46382;BME280;66809;52.974;-2.514;2023-06-10T02:13:53;1008.5367964488815;;;12.286528769086154;34.17087316794378
46382;BME280;66809;52.974;-2.514;2023-06-10T02:15:54;1008.5291886929995;;;12.258490512301195;34.18762422024156
46382;BME280;66809;52.974;-2.514;2023-06-10T02:17:54;1008.5220529705724;;;12.237015162999938;34.20496474141337
46382;BME280;66809;52.974;-2.514;2023-06-10T02:19:53;1008.5146805893295;;;12.221136473079154;34.21953985513151
46382;BME280;66809;52.974;-2.514;2023-06-10T02:21:54;1008.5057282251921;;;12.201658701624499;34.237393418184546
46382;BME280;66809;52.974;-2.514;2023-06-10T02:23:54;1008.4949376264823;;;12.174310206420545;34.25538422160905
46382;BME280;66809;52.974;-2.514;2023-06-10T02:25:54;1008.4820295377226;;;12.140917596920264;34.27381595474417
46382;BME280;66809;52.974;-2.514;2023-06-10T02:27:53;1008.4684171496286;;;12.11565697863409;34.30133582034989
46382;BME280;66809;52.974;-2.514;2023-06-10T02:29:54;1008.4544918335403;;;12.089239789639924;34.324730866620186
46382;BME280;66809;52.974;-2.514;2023-06-10T02:31:54;1008.4400699688555;;;12.050523132460276;34.343114078048686
46382;BME280;66809;52.974;-2.514;2023-06-10T02:33:53;1008.4261540526535;;;12.010285707494935;34.35303231606193
46382;BME280;66809;52.974;-2.514;2023-06-10T02:35:55;1008.4133237292341;;;11.974681259655833;34.369631665812
46382;BME280;66809;52.974;-2.514;2023-06-10T02:37:54;1008.4025388723288;;;11.933308799268373;34.38066483057749
46382;BME280;66809;52.974;-2.514;2023-06-10T02:39:54;1008.3912555783178;;;11.900874934453771;34.396048839510435
46382;BME280;66809;52.974;-2.514;2023-06-10T02:41:54;1008.3797473375392;;;11.870354636795806;34.41836256256029
46382;BME280;66809;52.974;-2.514;2023-06-10T02:43:54;1008.3679573349043;;;11.82546582652403;34.43366115856732
46382;BME280;66809;52.974;-2.514;2023-06-10T02:45:54;1008.354911617436;;;11.800266942636778;34.45875835296407
46382;BME280;66809;52.974;-2.514;2023-06-10T02:47:54;1008.3408729197453;;;11.746415163786398;34.499026306642705
46382;BME280;66809;52.974;-2.514;2023-06-10T02:49:54;1008.3288018938705;;;11.707000385600804;34.528042963900276
46382;BME280;66809;52.974;-2.514;2023-06-10T02:51:54;1008.3174312083421;;;11.674224125416485;34.56126623790166
46382;BME280;66809;52.974;-2.514;2023-06-10T02:53:54;1008.3070932398803;;;11.639660331196982;34.590923265954636
46382;BME280;66809;52.974;-2.514;2023-06-10T02:55:54;1008.2968615097186;;;11.607210956988666;34.61996215674863
46382;BME280;66809;52.974;-2.514;2023-06-10T02:57:54;1008.2865933839792;;;11.567993687378765;34.64532592260854
46382;BME280;66809;52.974;-2.514;2023-06-10T02:59:54;1008.2751921546551;;;11.531574340481752;34.671846517006976
46382;BME280;66809;52.974;-2.514;2023-06-10T03:01:54;1008.2647809239352;;;11.501519608988254;34.69042338675986
46382;BME280;66809;52.974;-2.514;2023-06-10T03:03:54;1008.2535638706347;;;11.469339120230783;34.71905593087025
46382;BME280;66809;52.974;-2.514;2023-06-10T03:05:55;1008.2433842644926;;;11.426349276575026;34.749878272972715
46382;BME280;66809;52.974;-2.514;2023-06-10T03:07:53;1008.2328713200266;;;11.4006926105098;34.784722668533234
46382;BME280;66809;52.974;-2.514;2023-06-10T03:09:54;1008.22357909647;;;11.367354752121239;34.82879854956594
46382;BME280;66809;52.974;-2.514;2023-06-10T03:11:54;1008.2139834212943;;;11.345114075082392;34.86915998985126
46382;BME280;66809;52.974;-2.514;2023-06-10T03:13:54;1008.2039049017216;;;11.321270715301107;34.89894529284464
46382;BME280;66809;52.974;-2.514;2023-06-10T03:15:54;1008.1948248633219;;;11.290464089702962;34.921168630903736
46382;BME280;66809;52.974;-2.514;2023-06-10T03:17:54;1008.185817120629;;;11.267862128631903;34.95029634329962
46382;BME280;66809;52.974;-2.514;2023-06-10T03:19:54;1008.1762927770852;;;11.245340017636185;34.969401036552966
46382;BME280;66809;52.974;-2.514;2023-06-10T03:21:58;1008.1682951714789;;;11.21395787986922;34.97727472210665
46382;BME280;66809;52.974;-2.514;2023-06-10T03:23:54;1008.1618485275771;;;11.181911988903556;34.99765773597171
46382;BME280;66809;52.974;-2.514;2023-06-10T03:25:54;1008.156907308426;;;11.182988168851589;35.016287419934876
46382;BME280;66809;52.974;-2.514;2023-06-10T03:27:53;1008.1528731173029;;;11.16708285574944;35.02322671985368
46382;BME280;66809;52.974;-2.514;2023-06-10T03:29:54;1008.148518919489;;;11.160373674085726;35.0281014889574
46382;BME280;66809;52.974;-2.514;2023-06-10T03:31:54;1008.1452660034792;;;11.150801479205477;35.03679806075813
46382;BME280;66809;52.974;-2.514;2023-06-10T03:33:53;1008.1420166184259;;;11.147682151301336;35.04533912595207
46382;BME280;66809;52.974;-2.514;2023-06-10T03:35:54;1008.1391284530805;;;11.140250482188899;35.045418187835686
46382;BME280;66809;52.974;-2.514;2023-06-10T03:37:54;1008.1359320647639;;;11.15164170303492;35.033637554015776
46382;BME280;66809;52.974;-2.514;2023-06-10T03:39:54;1008.1334759697529;;;11.157122049556031;35.008230492386204
46382;BME280;66809;52.974;-2.514;2023-06-10T03:41:54;1008.1316499962518;;;11.161445022637253;34.98525243313907
46382;BME280;66809;52.974;-2.514;2023-06-10T03:43:54;1008.1297929378986;;;11.17310307423082;34.966146318016506
46382;BME280;66809;52.974;-2.514;2023-06-10T03:45:54;1008.1284099594479;;;11.184007043326154;34.93480013027047
46382;BME280;66809;52.974;-2.514;2023-06-10T03:47:54;1008.1281636784666;;;11.202594740105642;34.90357323666527
46382;BME280;66809;52.974;-2.514;2023-06-10T03:49:54;1008.1263430169491;;;11.210996966874559;34.87664332608933
46382;BME280;66809;52.974;-2.514;2023-06-10T03:51:53;1008.1236369640758;;;11.22671536928475;34.83797797697351
46382;BME280;66809;52.974;-2.514;2023-06-10T03:53:54;1008.118740443281;;;11.243845350827943;34.80125927505465
46382;BME280;66809;52.974;-2.514;2023-06-10T03:55:54;1008.1126862931118;;;11.25286856979466;34.763133057686915
46382;BME280;66809;52.974;-2.514;2023-06-10T03:57:53;1008.1070120138436;;;11.277465983695418;34.718004070330956
46382;BME280;66809;52.974;-2.514;2023-06-10T03:59:55;1008.1002067132342;;;11.295517307395578;34.67130383163593
46382;BME280;66809;52.974;-2.514;2023-06-10T04:01:54;1008.0927857067762;;;11.315354943877928;34.634493805070946
46382;BME280;66809;52.974;-2.514;2023-06-10T04:03:54;1008.0855299874511;;;11.337259518831384;34.582205718234356
46382;BME280;66809;52.974;-2.514;2023-06-10T04:05:54;1008.0777081756169;;;11.36280010586888;34.5299231557739
46382;BME280;66809;52.974;-2.514;2023-06-10T04:07:53;1008.0718356098018;;;11.382977155920988;34.467739621055735
46382;BME280;66809;52.974;-2.514;2023-06-10T04:09:54;1008.0648576264773;;;11.402627809430134;34.41680799745564
46382;BME280;66809;52.974;-2.514;2023-06-10T04:11:54;1008.0588737893273;;;11.419852367575876;34.36526199086063
46382;BME280;66809;52.974;-2.514;2023-06-10T04:13:53;1008.0523716409302;;;11.444264931355805;34.31314573358991
46382;BME280;66809;52.974;-2.514;2023-06-10T04:15:54;1008.0449154108923;;;11.4693328512401;34.26427124308267
46382;BME280;66809;52.974;-2.514;2023-06-10T04:17:54;1008.0389010447551;;;11.480835503853013;34.20825327144605
46382;BME280;66809;52.974;-2.514;2023-06-10T04:19:53;1008.0336992762875;;;11.492249906180323;34.1719158090623
46382;BME280;66809;52.974;-2.514;2023-06-10T04:21:54;1008.028790435648;;;11.505719906271983;34.145786805536275
46382;BME280;66809;52.974;-2.514;2023-06-10T04:23:54;1008.023246727546;;;11.53491745150711;34.11252296465679
46382;BME280;66809;52.974;-2.514;2023-06-10T04:25:53;1008.017777762409;;;11.551465590069848;34.07504883566035
46382;BME280;66809;52.974;-2.514;2023-06-10T04:27:54;1008.0128288986402;;;11.563921878663892;34.03376025588235
46382;BME280;66809;52.974;-2.514;2023-06-10T04:29:54;1008.0099112654912;;;11.578772783376568;34.00299225884902
46382;BME280;66809;52.974;-2.514;2023-06-10T04:31:53;1008.0081396822777;;;11.596007774014927;33.9602281645167
46382;BME280;66809;52.974;-2.514;2023-06-10T04:33:54;1008.0068943035238;;;11.612232372235699;33.93298697799242
46382;BME280;66809;52.974;-2.514;2023-06-10T04:35:54;1008.0052224343909;;;11.623146805195377;33.911311195809496
46382;BME280;66809;52.974;-2.514;2023-06-10T04:37:54;1008.0036568641079;;;11.626064499696726;33.90246826195374
46382;BME280;66809;52.974;-2.514;2023-06-10T04:39:54;1008.0023704567155;;;11.635466552933174;33.904146383513414
46382;BME280;66809;52.974;-2.514;2023-06-10T04:41:54;1007.9993066290257;;;11.64581805747009;33.90138148765591
46382;BME280;66809;52.974;-2.514;2023-06-10T04:43:54;1007.9958806237405;;;11.651984476399475;33.89958718853405
46382;BME280;66809;52.974;-2.514;2023-06-10T04:45:54;1007.993215814797;;;11.66089294561709;33.904376304694715
46382;BME280;66809;52.974;-2.514;2023-06-10T04:47:54;1007.9895503676543;;;11.676999952535589;33.91436509730945
46382;BME280;66809;52.974;-2.514;2023-06-10T04:49:54;1007.9858561449283;;;11.696591729952692;33.919046500056396
46382;BME280;66809;52.974;-2.514;2023-06-10T04:51:54;1007.9829559882527;;;11.707749847987653;33.927705667443256
46382;BME280;66809;52.974;-2.514;2023-06-10T04:53:54;1007.9802249411407;;;11.719252464279716;33.94188171422154
46382;BME280;66809;52.974;-2.514;2023-06-10T04:55:54;1007.9784952441182;;;11.731444071445905;33.95378452206985
46382;BME280;66809;52.974;-2.514;2023-06-10T04:57:53;1007.9764363283884;;;11.738627184849088;33.96962286809733
46382;BME280;66809;52.974;-2.514;2023-06-10T04:59:54;1007.9737993941209;;;11.754574596589903;33.98365567235204
46382;BME280;66809;52.974;-2.514;2023-06-10T05:01:54;1007.971550928475;;;11.758211206679341;33.992176021042226
46382;BME280;66809;52.974;-2.514;2023-06-10T05:03:54;1007.9713038619683;;;11.763932342518093;34.006845931238
46382;BME280;66809;52.974;-2.514;2023-06-10T05:05:54;1007.9712878295876;;;11.770880201963818;34.03008152388746
46382;BME280;66809;52.974;-2.514;2023-06-10T05:07:54;1007.9681957865292;;;11.785409789977244;34.068531611800154
46382;BME280;66809;52.974;-2.514;2023-06-10T05:09:54;1007.9653296244263;;;11.810650068715397;34.09608247905143
46382;BME280;66809;52.974;-2.514;2023-06-10T05:11:54;1007.9620049430874;;;11.835167010614365;34.123488916787416
46382;BME280;66809;52.974;-2.514;2023-06-10T05:13:54;1007.9580999549654;;;11.859525736509125;34.14881803185994
46382;BME280;66809;52.974;-2.514;2023-06-10T05:15:54;1007.9537965833495;;;11.896544495296496;34.17051229221918
46382;BME280;66809;52.974;-2.514;2023-06-10T05:17:56;1007.9480940285102;;;11.946698910906967;34.19365352919119
46382;BME280;66809;52.974;-2.514;2023-06-10T05:19:54;1007.9434913687454;;;12.000551822218007;34.20027732832215
46382;BME280;66809;52.974;-2.514;2023-06-10T05:21:54;1007.9386119432337;;;12.07232764365295;34.193922751857876
46382;BME280;66809;52.974;-2.514;2023-06-10T05:23:53;1007.9342218186412;;;12.143189196456005;34.178260457208644
46382;BME280;66809;52.974;-2.514;2023-06-10T05:25:54;1007.9308031860472;;;12.208298945233556;34.155935987996614
46382;BME280;66809;52.974;-2.514;2023-06-10T05:27:54;1007.9271225408087;;;12.301777474314578;34.13188201256094
46382;BME280;66809;52.974;-2.514;2023-06-10T05:29:54;1007.9238736323464;;;12.37478482664597;34.09661015601439
46382;BME280;66809;52.974;-2.514;2023-06-10T05:31:54;1007.9193797436278;;;12.461309352655226;34.068708031581295
46382;BME280;66809;52.974;-2.514;2023-06-10T05:33:54;1007.9140872125702;;;12.54965097326267;34.02195698436089
46382;BME280;66809;52.974;-2.514;2023-06-10T05:35:54;1007.9087815771842;;;12.643283886674887;33.97265267773847
46382;BME280;66809;52.974;-2.514;2023-06-10T05:37:54;1007.9049179335606;;;12.734883469221431;33.91952432840991
46382;BME280;66809;52.974;-2.514;2023-06-10T05:39:54;1007.9010054525056;;;12.828323917031792;33.87078907132109
46382;BME280;66809;52.974;-2.514;2023-06-10T05:41:54;1007.8986085167701;;;12.91566362600685;33.82214430953397
46382;BME280;66809;52.974;-2.514;2023-06-10T05:43:54;1007.8968465720978;;;13.021437287763481;33.77109288694911
46382;BME280;66809;52.974;-2.514;2023-06-10T05:45:54;1007.8954430154976;;;13.110029029246284;33.711246947932274
46382;BME280;66809;52.974;-2.514;2023-06-10T05:47:54;1007.894283963176;;;13.196705012060004;33.64273806099607
46382;BME280;66809;52.974;-2.514;2023-06-10T05:49:54;1007.8945731556962;;;13.276846153088647;33.57751559352295
46382;BME280;66809;52.974;-2.514;2023-06-10T05:51:53;1007.8955212892613;;;13.355306807876627;33.51490265382269
46382;BME280;66809;52.974;-2.514;2023-06-10T05:53:54;1007.898501488174;;;13.43356362278922;33.454149301609746
46382;BME280;66809;52.974;-2.514;2023-06-10T05:55:55;1007.9032846492217;;;13.514753627660337;33.40231508113491
46382;BME280;66809;52.974;-2.514;2023-06-10T05:58:01;1007.90889855857;;;13.60890701102679;33.35707255137201
46382;BME280;66809;52.974;-2.514;2023-06-10T05:59:54;1007.9167341304424;;;13.696289788217415;33.30540908518159
46382;BME280;66809;52.974;-2.514;2023-06-10T06:01:54;1007.9245108817736;;;13.796226464817957;33.25055842438926
46382;BME280;66809;52.974;-2.514;2023-06-10T06:03:54;1007.9313470416605;;;13.897441948912137;33.1928809642732
46382;BME280;66809;52.974;-2.514;2023-06-10T06:05:54;1007.938171904097;;;14.007032421273802;33.11841266580841
46382;BME280;66809;52.974;-2.514;2023-06-10T06:07:54;1007.9460667798996;;;14.09893134416244;33.032116722436584
46382;BME280;66809;52.974;-2.514;2023-06-10T06:09:53;1007.9537704005803;;;14.190809022947398;32.94703055544331
46382;BME280;66809;52.974;-2.514;2023-06-10T06:11:54;1007.9610998047177;;;14.273026939252844;32.86880926064162
46382;BME280;66809;52.974;-2.514;2023-06-10T06:13:54;1007.9705604186069;;;14.355044027516929;32.79687002109993
46382;BME280;66809;52.974;-2.514;2023-06-10T06:15:53;1007.9805186934434;;;14.436815296266966;32.72594040227207
46382;BME280;66809;52.974;-2.514;2023-06-10T06:17:54;1007.9910168967253;;;14.50029624441852;32.64971758518516
46382;BME280;66809;52.974;-2.514;2023-06-10T06:19:54;1008.0014084361848;;;14.56847654144235;32.58058491867424
46382;BME280;66809;52.974;-2.514;2023-06-10T06:21:53;1008.0126913798551;;;14.622700561534417;32.529228451893964
46382;BME280;66809;52.974;-2.514;2023-06-10T06:23:54;1008.0243258833993;;;14.67039372069277;32.49474383944594
46382;BME280;66809;52.974;-2.514;2023-06-10T06:25:54;1008.034465640695;;;14.710502462647534;32.47184344604162
46382;BME280;66809;52.974;-2.514;2023-06-10T06:27:53;1008.0448219951297;;;14.738496625831454;32.45627655260022
46382;BME280;66809;52.974;-2.514;2023-06-10T06:29:54;1008.0532389899304;;;14.79461897676148;32.434540485996656
46382;BME280;66809;52.974;-2.514;2023-06-10T06:31:54;1008.060911773525;;;14.853508184501854;32.41288124529349
46382;BME280;66809;52.974;-2.514;2023-06-10T06:33:54;1008.0686006178531;;;14.909464394036345;32.396823284210406
46382;BME280;66809;52.974;-2.514;2023-06-10T06:35:54;1008.0763418711847;;;14.966723575227366;32.372182754739654
46382;BME280;66809;52.974;-2.514;2023-06-10T06:37:54;1008.0825167028194;;;15.016604766207346;32.3390129342292
46382;BME280;66809;52.974;-2.514;2023-06-10T06:39:54;1008.0899447559611;;;15.051385470948137;32.304215357112696
46382;BME280;66809;52.974;-2.514;2023-06-10T06:41:54;1008.0956324049404;;;15.091737641012337;32.27070703782887
46382;BME280;66809;52.974;-2.514;2023-06-10T06:43:54;1008.101252588102;;;15.123571456263836;32.23845285887443
46382;BME280;66809;52.974;-2.514;2023-06-10T06:45:53;1008.1067633002973;;;15.169671022436427;32.20523004710498
46382;BME280;66809;52.974;-2.514;2023-06-10T06:47:54;1008.1113228283232;;;15.22001385224579;32.167561075769704
46382;BME280;66809;52.974;-2.514;2023-06-10T06:49:54;1008.1136497500514;;;15.277280896682187;32.13266910084834
46382;BME280;66809;52.974;-2.514;2023-06-10T06:51:53;1008.1156057077284;;;15.342496741752514;32.09688018112144
46382;BME280;66809;52.974;-2.514;2023-06-10T06:53:54;1008.1164299260531;;;15.409199282576223;32.04916451209285
46382;BME280;66809;52.974;-2.514;2023-06-10T06:55:54;1008.1134831170889;;;15.473280245869313;31.99871569484376
46382;BME280;66809;52.974;-2.514;2023-06-10T06:57:53;1008.1093013854611;;;15.523540881562635;31.940059318996056
46382;BME280;66809;52.974;-2.514;2023-06-10T06:59:54;1008.1054263360171;;;15.574514036559945;31.896329235306762
46382;BME280;66809;52.974;-2.514;2023-06-10T07:01:54;1008.1026632336502;;;15.613227934235114;31.85523497518131
46382;BME280;66809;52.974;-2.514;2023-06-10T07:03:53;1008.0997519233193;;;15.648242459373126;31.81583735462203
46382;BME280;66809;52.974;-2.514;2023-06-10T07:05:54;1008.0968338321945;;;15.668565635985987;31.794996363599704
46382;BME280;66809;52.974;-2.514;2023-06-10T07:07:54;1008.0929930152196;;;15.704972676726978;31.778601124723778
46382;BME280;66809;52.974;-2.514;2023-06-10T07:09:54;1008.088544957606;;;15.743560662003363;31.75059324127352